Isparta, Turkey
Current Conditions -  °F | °C
As of 3:20 AM on Monday 22 Dec 2014 (Local Time) from LTFC Reporting Station
Light Rain Light Rain  
Wind Chill: 29°   Ceiling: 3500
Heat Index: 37°   Visibility: 6mi
Dew Point: 34°   Wind: 15mph
Humidity: 87%   Direction: 330°NNW
Pressure: 30.12"   Gusts: NA
Location:  37.77°N, 30.55°E
Report Text: LTFC 220120Z 33013KT 9999 -RA BKN035 BKN090 03/01 Q1020
Loading
Personal Weather Stations






























Interactive Weather Map New forecast layout! Learn more

10-Day Weather Forecast

Advertisements
Track Severe Weather on mobile